createdAt,value
2016-06-20T00:00:48.009Z,0
2016-06-20T00:01:48.637Z,0
2016-06-20T00:02:47.469Z,0
2016-06-20T00:03:48.097Z,0
2016-06-20T00:04:47.537Z,0
2016-06-20T00:05:48.791Z,0
2016-06-20T00:06:46.997Z,0
2016-06-20T00:07:48.267Z,0
2016-06-20T00:08:47.676Z,0
2016-06-20T00:09:48.321Z,0
2016-06-20T00:10:48.340Z,0
2016-06-20T00:11:49.000Z,0
2016-06-20T00:12:47.206Z,0
2016-06-20T00:13:47.834Z,0
2016-06-20T00:14:47.275Z,0
2016-06-20T00:15:47.311Z,0
2016-06-20T00:16:48.564Z,0
2016-06-20T00:17:47.973Z,0
2016-06-20T00:18:48.633Z,0
2016-06-20T00:19:48.684Z,0
2016-06-20T00:20:48.703Z,0
2016-06-20T00:21:48.143Z,0
2016-06-20T00:22:49.382Z,0
2016-06-20T00:23:48.791Z,0
2016-06-20T00:24:48.842Z,0
2016-06-20T00:25:47.673Z,0
2016-06-20T00:26:48.926Z,0
2016-06-20T00:27:48.946Z,0
2016-06-20T00:28:48.403Z,0
2016-06-20T00:29:49.015Z,0
2016-06-20T00:30:49.049Z,0
2016-06-20T00:31:47.881Z,0
2016-06-20T00:32:49.151Z,0
2016-06-20T00:33:48.545Z,0
2016-06-20T00:34:49.188Z,0
2016-06-20T00:35:49.223Z,0
2016-06-20T00:36:48.665Z,0
2016-06-20T00:37:49.309Z,0
2016-06-20T00:38:49.327Z,0
2016-06-20T00:39:49.972Z,0
2016-06-20T00:40:48.787Z,0
2016-06-20T00:41:48.837Z,0
2016-06-20T00:42:48.872Z,0
2016-06-20T00:43:49.501Z,0
2016-06-20T00:44:48.926Z,0
2016-06-20T00:45:48.368Z,0
2016-06-20T00:46:49.011Z,0
2016-06-20T00:47:50.250Z,0
2016-06-20T00:48:49.675Z,0
2016-06-20T00:49:49.710Z,0
2016-06-20T00:50:49.743Z,0
2016-06-20T00:51:49.794Z,0
2016-06-20T00:52:49.813Z,0
2016-06-20T00:53:49.270Z,0
2016-06-20T00:54:49.273Z,0
2016-06-20T00:55:49.964Z,0
2016-06-20T00:56:49.952Z,0
2016-06-20T00:57:49.378Z,0
2016-06-20T00:58:49.427Z,0
2016-06-20T00:59:49.494Z,0
2016-06-20T01:00:49.498Z,0
2016-06-20T01:01:50.126Z,0
2016-06-20T01:02:50.191Z,0
2016-06-20T01:03:49.586Z,0
2016-06-20T01:04:50.230Z,0
2016-06-20T01:05:50.265Z,0
2016-06-20T01:06:49.705Z,0
2016-06-20T01:07:50.350Z,0
2016-06-20T01:08:50.978Z,0
2016-06-20T01:09:49.809Z,0
2016-06-20T01:10:50.454Z,0
2016-06-20T01:11:49.864Z,0
2016-06-20T01:12:50.523Z,0
2016-06-20T01:13:49.948Z,0
2016-06-20T01:14:49.374Z,0
2016-06-20T01:15:50.612Z,0
2016-06-20T01:16:51.256Z,0
2016-06-20T01:17:50.697Z,0
2016-06-20T01:18:50.106Z,0
2016-06-20T01:19:49.547Z,0
2016-06-20T01:20:50.192Z,0
2016-06-20T01:21:49.601Z,0
2016-06-20T01:22:50.870Z,0
2016-06-20T01:23:50.296Z,0
2016-06-20T01:24:50.925Z,0
2016-06-20T01:25:50.365Z,0
2016-06-20T01:26:50.384Z,0
2016-06-20T01:27:50.435Z,0
2016-06-20T01:28:51.064Z,0
2016-06-20T01:29:50.504Z,0
2016-06-20T01:30:51.132Z,0
2016-06-20T01:31:51.167Z,0
2016-06-20T01:32:50.000Z,0
2016-06-20T01:33:51.862Z,0
2016-06-20T01:34:51.287Z,0
2016-06-20T01:35:50.696Z,0
2016-06-20T01:36:50.153Z,0
2016-06-20T01:37:51.376Z,0
2016-06-20T01:38:51.410Z,0
2016-06-20T01:39:50.852Z,0
2016-06-20T01:40:51.480Z,0
2016-06-20T01:41:51.545Z,0
2016-06-20T01:42:51.549Z,0
2016-06-20T01:43:50.990Z,0
2016-06-20T01:44:51.619Z,0
2016-06-20T01:45:52.262Z,0
2016-06-20T01:46:50.484Z,0
2016-06-20T01:47:51.722Z,0
2016-06-20T01:48:51.757Z,0
2016-06-20T01:49:51.823Z,0
2016-06-20T01:50:51.232Z,0
2016-06-20T01:51:51.861Z,0
2016-06-20T01:52:51.896Z,0
2016-06-20T01:53:51.337Z,0
2016-06-20T01:54:51.357Z,0
2016-06-20T01:55:50.797Z,0
2016-06-20T01:56:52.035Z,0
2016-06-20T01:57:52.070Z,0
2016-06-20T01:58:52.104Z,0
2016-06-20T01:59:51.530Z,0
2016-06-20T02:00:52.189Z,0
2016-06-20T02:01:52.208Z,0
2016-06-20T02:02:52.243Z,0
2016-06-20T02:03:51.668Z,0
2016-06-20T02:04:51.702Z,0
2016-06-20T02:05:51.753Z,0
2016-06-20T02:06:51.757Z,0
2016-06-20T02:07:52.416Z,0
2016-06-20T02:08:52.483Z,0
2016-06-20T02:09:52.486Z,0
2016-06-20T02:10:52.506Z,0
2016-06-20T02:11:51.337Z,0
2016-06-20T02:12:51.372Z,0
2016-06-20T02:13:52.016Z,0
2016-06-20T02:14:52.645Z,0
2016-06-20T02:15:52.694Z,0
2016-06-20T02:16:52.729Z,0
2016-06-20T02:17:52.186Z,0
2016-06-20T02:18:52.189Z,0
2016-06-20T02:19:52.832Z,0
2016-06-20T02:20:52.274Z,0
2016-06-20T02:21:52.277Z,0
2016-06-20T02:22:52.937Z,0
2016-06-20T02:23:52.363Z,0
2016-06-20T02:24:53.007Z,0
2016-06-20T02:25:52.416Z,0
2016-06-20T02:26:53.686Z,0
2016-06-20T02:27:52.501Z,0
2016-06-20T02:28:53.161Z,0
2016-06-20T02:29:53.165Z,0
2016-06-20T02:30:53.809Z,0
2016-06-20T02:31:52.656Z,0
2016-06-20T02:32:52.660Z,0
2016-06-20T02:33:52.710Z,0
2016-06-20T02:34:52.744Z,0
2016-06-20T02:35:52.763Z,0
2016-06-20T02:36:52.798Z,0
2016-06-20T02:37:52.239Z,4
2016-06-20T02:38:54.086Z,4
2016-06-20T02:39:53.511Z,0
2016-06-20T02:40:54.155Z,0
2016-06-20T02:41:52.988Z,0
2016-06-20T02:42:53.616Z,4
2016-06-20T02:43:54.260Z,4
2016-06-20T02:44:54.294Z,4
2016-06-20T02:45:53.127Z,0
2016-06-20T02:46:52.536Z,4
2016-06-20T02:47:53.789Z,4
2016-06-20T02:48:53.840Z,4
2016-06-20T02:49:53.875Z,4
2016-06-20T02:50:53.893Z,4
2016-06-20T02:51:52.709Z,4
2016-06-20T02:52:54.588Z,8
2016-06-20T02:53:52.794Z,4
2016-06-20T02:54:54.016Z,8
2016-06-20T02:55:52.848Z,4
2016-06-20T02:56:54.106Z,8
2016-06-20T02:57:52.931Z,8
2016-06-20T02:58:53.599Z,8
2016-06-20T02:59:53.017Z,12
2016-06-20T03:00:53.669Z,12
2016-06-20T03:01:54.929Z,12
2016-06-20T03:02:54.357Z,12
2016-06-20T03:03:53.176Z,16
2016-06-20T03:04:55.027Z,16
2016-06-20T03:05:55.080Z,16
2016-06-20T03:06:53.898Z,16
2016-06-20T03:07:53.933Z,16
2016-06-20T03:08:53.953Z,24
2016-06-20T03:09:55.208Z,24
2016-06-20T03:10:55.244Z,20
2016-06-20T03:11:54.076Z,24
2016-06-20T03:12:54.095Z,28
2016-06-20T03:13:54.147Z,32
2016-06-20T03:14:54.776Z,28
2016-06-20T03:15:54.810Z,36
2016-06-20T03:16:54.252Z,40
2016-06-20T03:17:54.271Z,40
2016-06-20T03:18:54.338Z,40
2016-06-20T03:19:54.950Z,44
2016-06-20T03:20:55.002Z,48
2016-06-20T03:21:54.411Z,48
2016-06-20T03:22:53.837Z,52
2016-06-20T03:23:53.871Z,56
2016-06-20T03:24:55.719Z,56
2016-06-20T03:25:53.972Z,60
2016-06-20T03:26:55.195Z,64
2016-06-20T03:27:54.073Z,68
2016-06-20T03:28:55.263Z,72
2016-06-20T03:29:54.080Z,76
2016-06-20T03:30:54.114Z,84
2016-06-20T03:31:54.758Z,88
2016-06-20T03:32:55.402Z,92
2016-06-20T03:33:55.438Z,96
2016-06-20T03:34:55.472Z,100
2016-06-20T03:35:54.287Z,104
2016-06-20T03:36:55.541Z,108
2016-06-20T03:37:55.576Z,108
2016-06-20T03:38:55.611Z,116
2016-06-20T03:39:55.037Z,120
2016-06-20T03:40:55.071Z,124
2016-06-20T03:41:55.731Z,124
2016-06-20T03:42:55.141Z,132
2016-06-20T03:43:55.175Z,136
2016-06-20T03:44:55.226Z,140
2016-06-20T03:45:55.245Z,144
2016-06-20T03:46:56.497Z,148
2016-06-20T03:47:55.908Z,156
2016-06-20T03:48:55.332Z,160
2016-06-20T03:49:55.993Z,164
2016-06-20T03:50:55.418Z,168
2016-06-20T03:51:54.828Z,176
2016-06-20T03:52:54.878Z,180
2016-06-20T03:53:56.725Z,188
2016-06-20T03:54:56.166Z,192
2016-06-20T03:55:54.967Z,196
2016-06-20T03:56:55.017Z,200
2016-06-20T03:57:56.255Z,208
2016-06-20T03:58:56.914Z,216
2016-06-20T03:59:55.106Z,220
2016-06-20T04:00:55.171Z,232
2016-06-20T04:01:55.784Z,240
2016-06-20T04:02:55.819Z,248
2016-06-20T04:03:56.463Z,252
2016-06-20T04:04:55.279Z,256
2016-06-20T04:05:56.532Z,264
2016-06-20T04:06:55.973Z,268
2016-06-20T04:07:55.383Z,272
2016-06-20T04:08:56.621Z,276
2016-06-20T04:09:57.280Z,284
2016-06-20T04:10:56.097Z,284
2016-06-20T04:11:55.506Z,288
2016-06-20T04:12:56.150Z,292
2016-06-20T04:13:56.826Z,300
2016-06-20T04:14:56.845Z,308
2016-06-20T04:15:55.645Z,312
2016-06-20T04:16:56.915Z,320
2016-06-20T04:17:56.949Z,328
2016-06-20T04:18:56.983Z,336
2016-06-20T04:19:57.003Z,352
2016-06-20T04:20:57.663Z,372
2016-06-20T04:21:57.696Z,396
2016-06-20T04:22:56.513Z,412
2016-06-20T04:23:56.532Z,420
2016-06-20T04:24:57.192Z,432
2016-06-20T04:25:56.617Z,436
2016-06-20T04:26:56.636Z,448
2016-06-20T04:27:56.686Z,456
2016-06-20T04:28:56.721Z,464
2016-06-20T04:29:56.756Z,476
2016-06-20T04:30:56.791Z,488
2016-06-20T04:31:56.217Z,500
2016-06-20T04:32:56.860Z,520
2016-06-20T04:33:57.488Z,532
2016-06-20T04:34:57.538Z,628
2016-06-20T04:35:58.183Z,764
2016-06-20T04:36:57.608Z,832
2016-06-20T04:37:57.034Z,844
2016-06-20T04:38:58.271Z,868
2016-06-20T04:39:58.322Z,876
2016-06-20T04:40:57.137Z,888
2016-06-20T04:41:56.563Z,904
2016-06-20T04:42:57.223Z,916
2016-06-20T04:43:57.883Z,932
2016-06-20T04:44:58.511Z,948
2016-06-20T04:45:57.921Z,956
2016-06-20T04:46:56.737Z,960
2016-06-20T04:47:58.006Z,976
2016-06-20T04:48:57.415Z,988
2016-06-20T04:49:58.075Z,1008
2016-06-20T04:50:57.501Z,1016
2016-06-20T04:51:58.145Z,1016
2016-06-20T04:52:56.944Z,1008
2016-06-20T04:53:57.620Z,1024
2016-06-20T04:54:58.858Z,1032
2016-06-20T04:55:57.674Z,1044
2016-06-20T04:56:57.708Z,1072
2016-06-20T04:57:57.759Z,1108
2016-06-20T04:58:58.403Z,1128
2016-06-20T04:59:58.422Z,1144
2016-06-20T05:00:57.864Z,1152
2016-06-20T05:01:57.320Z,1172
2016-06-20T05:02:58.543Z,1184
2016-06-20T05:03:58.577Z,1212
2016-06-20T05:04:58.627Z,1216
2016-06-20T05:05:58.053Z,1228
2016-06-20T05:06:58.697Z,1260
2016-06-20T05:07:58.731Z,1256
2016-06-20T05:08:57.578Z,1268
2016-06-20T05:09:58.817Z,1276
2016-06-20T05:10:58.851Z,1324
2016-06-20T05:11:58.276Z,1388
2016-06-20T05:12:59.545Z,1400
2016-06-20T05:13:59.580Z,1424
2016-06-20T05:14:58.396Z,1408
2016-06-20T05:15:59.649Z,1364
2016-06-20T05:16:58.497Z,1288
2016-06-20T05:17:59.126Z,1328
2016-06-20T05:18:58.551Z,1148
2016-06-20T05:19:59.210Z,1476
2016-06-20T05:20:58.026Z,1464
2016-06-20T05:21:58.061Z,1428
2016-06-20T05:22:59.314Z,1412
2016-06-20T05:23:59.365Z,1440
2016-06-20T05:25:00.008Z,1516
2016-06-20T05:25:58.825Z,1604
2016-06-20T05:26:59.484Z,1632
2016-06-20T05:27:58.941Z,1500
2016-06-20T05:28:59.553Z,1500
2016-06-20T05:29:58.386Z,1020
2016-06-20T05:30:59.029Z,936
2016-06-20T05:31:59.689Z,796
2016-06-20T05:32:59.724Z,732
2016-06-20T05:33:59.149Z,764
2016-06-20T05:34:59.840Z,868
2016-06-20T05:35:59.844Z,972
2016-06-20T05:36:59.269Z,1448
2016-06-20T05:37:58.695Z,1300
2016-06-20T05:38:59.354Z,1568
2016-06-20T05:39:59.388Z,1572
2016-06-20T05:41:00.049Z,1628
2016-06-20T05:41:58.864Z,1616
2016-06-20T05:43:00.727Z,1624
2016-06-20T05:44:00.152Z,1648
2016-06-20T05:44:59.593Z,1688
2016-06-20T05:46:00.237Z,1704
2016-06-20T05:47:00.882Z,1708
2016-06-20T05:47:59.713Z,1732
2016-06-20T05:48:59.747Z,1724
2016-06-20T05:50:00.408Z,1744
2016-06-20T05:50:59.833Z,1780
2016-06-20T05:52:01.087Z,1780
2016-06-20T05:52:59.918Z,1804
2016-06-20T05:54:00.547Z,1796
2016-06-20T05:55:00.612Z,1696
2016-06-20T05:56:01.257Z,1448
2016-06-20T05:57:00.713Z,1316
2016-06-20T05:58:01.341Z,1288
2016-06-20T05:58:59.548Z,1212
2016-06-20T06:00:01.410Z,980
2016-06-20T06:01:01.477Z,904
2016-06-20T06:02:00.887Z,904
2016-06-20T06:03:00.937Z,892
2016-06-20T06:03:59.753Z,876
2016-06-20T06:05:00.397Z,868
2016-06-20T06:06:00.447Z,876
2016-06-20T06:07:01.107Z,868
2016-06-20T06:08:01.142Z,832
2016-06-20T06:09:00.567Z,808
2016-06-20T06:10:01.211Z,792
2016-06-20T06:11:01.261Z,780
2016-06-20T06:12:00.687Z,780
2016-06-20T06:13:01.346Z,788
2016-06-20T06:14:00.163Z,796
2016-06-20T06:15:01.431Z,812
2016-06-20T06:16:02.076Z,828
2016-06-20T06:17:01.486Z,840
2016-06-20T06:18:00.941Z,828
2016-06-20T06:19:01.571Z,824
2016-06-20T06:20:00.996Z,816
2016-06-20T06:21:01.062Z,824
2016-06-20T06:22:02.300Z,844
2016-06-20T06:23:01.725Z,848
2016-06-20T06:24:01.760Z,832
2016-06-20T06:25:02.404Z,840
2016-06-20T06:26:02.454Z,856
2016-06-20T06:27:01.879Z,860
2016-06-20T06:28:01.305Z,888
2016-06-20T06:29:01.480Z,884
2016-06-20T06:30:02.608Z,860
2016-06-20T06:31:01.440Z,844
2016-06-20T06:32:01.490Z,828
2016-06-20T06:33:02.119Z,816
2016-06-20T06:34:01.544Z,812
2016-06-20T06:35:01.578Z,804
2016-06-20T06:36:02.223Z,796
2016-06-20T06:37:01.648Z,796
2016-06-20T06:38:02.308Z,800
2016-06-20T06:39:02.342Z,800
2016-06-20T06:40:03.003Z,792
2016-06-20T06:41:01.802Z,796
2016-06-20T06:42:01.837Z,788
2016-06-20T06:43:01.888Z,796
2016-06-20T06:44:03.141Z,776
2016-06-20T06:45:01.364Z,764
2016-06-20T06:46:01.992Z,744
2016-06-20T06:47:02.636Z,732
2016-06-20T06:48:02.671Z,740
2016-06-20T06:49:01.534Z,756
2016-06-20T06:50:02.147Z,768
2016-06-20T06:51:02.806Z,808
2016-06-20T06:52:03.435Z,824
2016-06-20T06:53:03.485Z,824
2016-06-20T06:54:02.926Z,824
2016-06-20T06:55:02.336Z,840
2016-06-20T06:56:02.370Z,848
2016-06-20T06:57:03.015Z,844
2016-06-20T06:58:03.065Z,832
2016-06-20T06:59:02.506Z,804
2016-06-20T07:00:01.931Z,772
2016-06-20T07:01:01.951Z,716
2016-06-20T07:02:03.830Z,712
2016-06-20T07:03:03.253Z,692
2016-06-20T07:04:03.289Z,708
2016-06-20T07:05:02.715Z,736
2016-06-20T07:06:03.358Z,748
2016-06-20T07:07:04.064Z,744
2016-06-20T07:08:02.834Z,756
2016-06-20T07:09:03.479Z,756
2016-06-20T07:10:04.122Z,752
2016-06-20T07:11:03.563Z,756
2016-06-20T07:12:04.192Z,780
2016-06-20T07:13:03.038Z,808
2016-06-20T07:14:04.277Z,848
2016-06-20T07:15:03.092Z,876
2016-06-20T07:16:03.127Z,876
2016-06-20T07:17:03.193Z,852
2016-06-20T07:18:04.431Z,840
2016-06-20T07:19:03.278Z,856
2016-06-20T07:20:03.891Z,876
2016-06-20T07:21:03.941Z,872
2016-06-20T07:22:03.976Z,820
2016-06-20T07:23:03.402Z,828
2016-06-20T07:24:04.656Z,776
2016-06-20T07:25:03.470Z,808
2016-06-20T07:26:03.505Z,812
2016-06-20T07:27:04.165Z,812
2016-06-20T07:28:04.200Z,820
2016-06-20T07:29:04.251Z,800
2016-06-20T07:30:04.869Z,812
2016-06-20T07:31:03.724Z,908
2016-06-20T07:32:04.360Z,936
2016-06-20T07:33:03.808Z,904
2016-06-20T07:34:04.475Z,864
2016-06-20T07:35:05.122Z,888
2016-06-20T07:36:04.550Z,1020
2016-06-20T07:37:03.977Z,1020
2016-06-20T07:38:04.639Z,1004
2016-06-20T07:39:05.301Z,1044
2016-06-20T07:40:05.322Z,1084
2016-06-20T07:41:04.140Z,1100
2016-06-20T07:42:04.784Z,1096
2016-06-20T07:43:04.210Z,1088
2016-06-20T07:44:04.278Z,1124
2016-06-20T07:45:04.907Z,1388
2016-06-20T07:46:03.739Z,1736
2016-06-20T07:47:03.820Z,1780
2016-06-20T07:48:04.419Z,2076
2016-06-20T07:49:05.078Z,2288
2016-06-20T07:50:04.488Z,2288
2016-06-20T07:51:03.930Z,2312
2016-06-20T07:52:04.588Z,2444
2016-06-20T07:53:04.624Z,2372
2016-06-20T07:54:04.642Z,2676
2016-06-20T07:55:05.911Z,2708
2016-06-20T07:56:05.353Z,2584
2016-06-20T07:57:05.387Z,2736
2016-06-20T07:58:04.813Z,2912
2016-06-20T07:59:05.472Z,2952
2016-06-20T08:00:04.898Z,2900
2016-06-20T08:01:05.557Z,2840
2016-06-20T08:02:06.201Z,2688
2016-06-20T08:03:05.627Z,2656
2016-06-20T08:04:05.677Z,2660
2016-06-20T08:05:05.978Z,2604
2016-06-20T08:06:04.544Z,2628
2016-06-20T08:07:05.828Z,2648
2016-06-20T08:08:05.847Z,2540
2016-06-20T08:09:06.507Z,2344
2016-06-20T08:10:06.541Z,2644
2016-06-20T08:11:05.999Z,2828
2016-06-20T08:12:05.439Z,2832
2016-06-20T08:13:05.473Z,2684
2016-06-20T08:14:05.540Z,2664
2016-06-20T08:15:04.949Z,2580
2016-06-20T08:16:05.609Z,2596
2016-06-20T08:17:06.254Z,2732
2016-06-20T08:18:07.054Z,2848
2016-06-20T08:19:06.338Z,2664
2016-06-20T08:20:05.186Z,1604
2016-06-20T08:21:06.439Z,2588
2016-06-20T08:22:07.098Z,1804
2016-06-20T08:23:07.133Z,1872
2016-06-20T08:24:06.558Z,1884
2016-06-20T08:25:06.609Z,1976
2016-06-20T08:26:06.675Z,2184
2016-06-20T08:27:06.085Z,2040
2016-06-20T08:28:07.385Z,1792
2016-06-20T08:29:06.200Z,1648
2016-06-20T08:30:06.845Z,2636
2016-06-20T08:31:06.896Z,1688
2016-06-20T08:32:06.321Z,1768
2016-06-20T08:33:06.370Z,1856
2016-06-20T08:34:06.422Z,1720
2016-06-20T08:35:06.457Z,1564
2016-06-20T08:36:07.741Z,1552
2016-06-20T08:37:07.759Z,2208
2016-06-20T08:38:07.232Z,1764
2016-06-20T08:39:06.032Z,1328
2016-06-20T08:40:07.302Z,2320
2016-06-20T08:41:07.353Z,1744
2016-06-20T08:42:06.761Z,1640
2016-06-20T08:43:08.015Z,2332
2016-06-20T08:44:06.847Z,2192
2016-06-20T08:45:06.897Z,1616
2016-06-20T08:46:07.573Z,1520
2016-06-20T08:47:06.982Z,1424
2016-06-20T08:48:07.672Z,1604
2016-06-20T08:49:07.692Z,1808
2016-06-20T08:50:07.134Z,1484
2016-06-20T08:51:07.152Z,1580
2016-06-20T08:52:08.422Z,1432
2016-06-20T08:53:08.487Z,1748
2016-06-20T08:54:07.912Z,1580
2016-06-20T08:55:07.338Z,2016
2016-06-20T08:56:08.608Z,1524
2016-06-20T08:57:08.658Z,1456
2016-06-20T08:58:08.082Z,1452
2016-06-20T08:59:08.118Z,2628
2016-06-20T09:00:08.168Z,2032
2016-06-20T09:01:07.592Z,2116
2016-06-20T09:02:07.034Z,1948
2016-06-20T09:03:08.913Z,1880
2016-06-20T09:04:08.322Z,1760
2016-06-20T09:05:08.982Z,1704
2016-06-20T09:06:07.813Z,2128
2016-06-20T09:07:07.864Z,1756
2016-06-20T09:08:07.899Z,1472
2016-06-20T09:09:09.183Z,1368
2016-06-20T09:10:07.999Z,1380
2016-06-20T09:11:08.035Z,1344
2016-06-20T09:12:09.303Z,1376
2016-06-20T09:13:08.120Z,1376
2016-06-20T09:14:07.544Z,1300
2016-06-20T09:15:08.798Z,1292
2016-06-20T09:16:08.849Z,1380
2016-06-20T09:17:08.289Z,1480
2016-06-20T09:18:08.323Z,1608
2016-06-20T09:19:08.374Z,1732
2016-06-20T09:20:08.424Z,2200
2016-06-20T09:21:09.069Z,1860
2016-06-20T09:22:08.509Z,1984
2016-06-20T09:23:09.154Z,1892
2016-06-20T09:24:10.001Z,2020
2016-06-20T09:25:09.254Z,2072
2016-06-20T09:26:08.664Z,2008
2016-06-20T09:27:08.715Z,3168
2016-06-20T09:28:09.983Z,3332
2016-06-20T09:29:09.393Z,3172
2016-06-20T09:30:09.443Z,1632
2016-06-20T09:31:09.493Z,1620
2016-06-20T09:32:09.544Z,2292
2016-06-20T09:33:09.564Z,1920
2016-06-20T09:34:10.253Z,1604
2016-06-20T09:35:09.054Z,1748
2016-06-20T09:36:09.089Z,1736
2016-06-20T09:37:09.139Z,1840
2016-06-20T09:38:09.189Z,1960
2016-06-20T09:39:10.443Z,2024
2016-06-20T09:40:09.884Z,2032
2016-06-20T09:41:09.310Z,2096
2016-06-20T09:42:09.953Z,2120
2016-06-20T09:43:08.801Z,2108
2016-06-20T09:44:08.836Z,2032
2016-06-20T09:45:10.120Z,1880
2016-06-20T09:46:09.531Z,1856
2016-06-20T09:47:10.174Z,1824
2016-06-20T09:48:09.850Z,1832
2016-06-20T09:49:09.681Z,1804
2016-06-20T09:50:10.731Z,1708
2016-06-20T09:51:10.953Z,1656
2016-06-20T09:52:11.004Z,1624
2016-06-20T09:53:09.835Z,1632
2016-06-20T09:54:11.089Z,1480
2016-06-20T09:55:09.920Z,1404
2016-06-20T09:56:10.565Z,1428
2016-06-20T09:57:10.630Z,1388
2016-06-20T09:58:10.650Z,1320
2016-06-20T09:59:10.090Z,1448
2016-06-20T10:00:10.141Z,1384
2016-06-20T10:01:10.816Z,1328
2016-06-20T10:02:10.210Z,1432
2016-06-20T10:03:09.667Z,1448
2016-06-20T10:04:10.920Z,1404
2016-06-20T10:05:10.971Z,1440
2016-06-20T10:06:11.006Z,1420
2016-06-20T10:07:11.650Z,1496
2016-06-20T10:08:10.482Z,1560
2016-06-20T10:09:11.141Z,1632
2016-06-20T10:10:10.567Z,1588
2016-06-20T10:11:10.601Z,1676
2016-06-20T10:12:10.652Z,1720
2016-06-20T10:13:11.921Z,1780
2016-06-20T10:14:10.127Z,1828
2016-06-20T10:15:10.770Z,1868
2016-06-20T10:16:11.432Z,1984
2016-06-20T10:17:10.888Z,1888
2016-06-20T10:18:10.313Z,1944
2016-06-20T10:19:10.379Z,1992
2016-06-20T10:20:10.991Z,1996
2016-06-20T10:21:11.041Z,2016
2016-06-20T10:22:11.092Z,1828
2016-06-20T10:23:12.331Z,1800
2016-06-20T10:24:11.787Z,1844
2016-06-20T10:25:11.212Z,2124
2016-06-20T10:26:11.325Z,2124
2016-06-20T10:27:10.687Z,2012
2016-06-20T10:28:11.956Z,2140
2016-06-20T10:29:11.366Z,2344
2016-06-20T10:30:11.417Z,3432
2016-06-20T10:31:12.686Z,2712
2016-06-20T10:32:12.721Z,2396
2016-06-20T10:33:12.771Z,2304
2016-06-20T10:34:11.634Z,2308
2016-06-20T10:35:12.247Z,2328
2016-06-20T10:36:12.297Z,2104
2016-06-20T10:37:12.941Z,2172
2016-06-20T10:38:12.382Z,2100
2016-06-20T10:39:11.807Z,2016
2016-06-20T10:40:11.857Z,1844
2016-06-20T10:41:13.142Z,1832
2016-06-20T10:42:12.552Z,1828
2016-06-20T10:43:11.384Z,1672
2016-06-20T10:44:13.278Z,1584
2016-06-20T10:45:11.468Z,1416
2016-06-20T10:46:11.519Z,1348
2016-06-20T10:47:12.773Z,1180
2016-06-20T10:48:12.823Z,1128
2016-06-20T10:49:12.249Z,1088
2016-06-20T10:50:13.533Z,1108
2016-06-20T10:51:12.959Z,1196
2016-06-20T10:52:12.993Z,1112
2016-06-20T10:53:12.434Z,1072
2016-06-20T10:54:12.469Z,924
2016-06-20T10:55:11.894Z,788
2016-06-20T10:56:13.163Z,788
2016-06-20T10:57:13.244Z,856
2016-06-20T10:58:13.264Z,996
2016-06-20T10:59:13.298Z,1028
2016-06-20T11:00:13.348Z,1012
2016-06-20T11:01:13.383Z,944
2016-06-20T11:02:12.825Z,1012
2016-06-20T11:03:13.484Z,1036
2016-06-20T11:04:13.518Z,1164
2016-06-20T11:05:13.554Z,1260
2016-06-20T11:06:13.010Z,1344
2016-06-20T11:07:14.248Z,1312
2016-06-20T11:08:13.689Z,1332
2016-06-20T11:09:13.739Z,1312
2016-06-20T11:10:13.774Z,1288
2016-06-20T11:11:14.434Z,1256
2016-06-20T11:12:14.468Z,1252
2016-06-20T11:13:13.284Z,1252
2016-06-20T11:14:12.725Z,1248
2016-06-20T11:15:14.588Z,1228
2016-06-20T11:16:14.045Z,1172
2016-06-20T11:17:13.455Z,1152
2016-06-20T11:18:12.896Z,1132
2016-06-20T11:19:13.539Z,1112
2016-06-20T11:20:13.590Z,1092
2016-06-20T11:21:14.906Z,1048
2016-06-20T11:22:14.878Z,1032
2016-06-20T11:23:13.131Z,1032
2016-06-20T11:24:14.979Z,1068
2016-06-20T11:25:14.404Z,1072
2016-06-20T11:26:13.830Z,1052
2016-06-20T11:27:14.489Z,1048
2016-06-20T11:28:13.914Z,1088
2016-06-20T11:29:14.559Z,1064
2016-06-20T11:30:14.640Z,1064
2016-06-20T11:31:14.659Z,1052
2016-06-20T11:32:14.069Z,1032
2016-06-20T11:33:14.728Z,1052
2016-06-20T11:34:14.763Z,1052
2016-06-20T11:35:14.219Z,1040
2016-06-20T11:36:15.473Z,1068
2016-06-20T11:37:14.899Z,1076
2016-06-20T11:38:15.605Z,1040
2016-06-20T11:39:14.374Z,1020
2016-06-20T11:40:15.628Z,1028
2016-06-20T11:41:15.068Z,1076
2016-06-20T11:42:15.119Z,1128
2016-06-20T11:43:15.779Z,1180
2016-06-20T11:44:15.798Z,1204
2016-06-20T11:45:15.239Z,1208
2016-06-20T11:46:15.274Z,1204
2016-06-20T11:47:14.089Z,1196
2016-06-20T11:48:14.750Z,1180
2016-06-20T11:49:14.784Z,1168
2016-06-20T11:50:15.428Z,1156
2016-06-20T11:51:16.088Z,1148
2016-06-20T11:52:16.122Z,1140
2016-06-20T11:53:15.562Z,1128
2016-06-20T11:54:15.020Z,1128
2016-06-20T11:55:16.242Z,1120
2016-06-20T11:56:15.683Z,1108
2016-06-20T11:57:15.124Z,1092
2016-06-20T11:58:16.393Z,1080
2016-06-20T12:11:29.904Z,1140
2016-06-20T12:11:52.623Z,1152
2016-06-20T12:12:52.675Z,1172
2016-06-20T12:13:52.115Z,1184
2016-06-20T12:14:51.541Z,1204
2016-06-20T12:15:52.186Z,1224
2016-06-20T12:16:52.236Z,1240
2016-06-20T12:17:52.271Z,1252
2016-06-20T12:18:52.914Z,1256
2016-06-20T12:19:52.387Z,1252
2016-06-20T12:20:53.016Z,1240
2016-06-20T12:21:53.051Z,1224
2016-06-20T12:22:53.711Z,1204
2016-06-20T12:23:53.136Z,1184
2016-06-20T12:24:53.780Z,1160
2016-06-20T12:25:53.205Z,1128
2016-06-20T12:26:53.864Z,1096
2016-06-20T12:27:53.306Z,1068
2016-06-20T12:28:53.324Z,1044
2016-06-20T12:29:52.782Z,1032
2016-06-20T12:30:52.222Z,1020
2016-06-20T12:31:52.851Z,1004
2016-06-20T12:32:52.901Z,984
2016-06-20T12:33:54.171Z,960
2016-06-20T12:34:53.002Z,932
2016-06-20T12:35:53.646Z,904
2016-06-20T12:36:53.713Z,884
2016-06-20T12:37:53.122Z,876
2016-06-20T12:38:53.766Z,876
2016-06-20T12:39:53.817Z,884
2016-06-20T12:40:53.851Z,912
2016-06-20T12:41:53.869Z,936
2016-06-20T12:42:53.310Z,968
2016-06-20T12:43:53.971Z,992
2016-06-20T12:44:54.005Z,1012
2016-06-20T12:45:54.665Z,1032
2016-06-20T12:46:54.699Z,1040
2016-06-20T12:47:54.125Z,1048
2016-06-20T12:48:54.769Z,1068
2016-06-20T12:49:54.835Z,1100
2016-06-20T12:50:54.869Z,1156
2016-06-20T12:51:53.076Z,1196
2016-06-20T12:52:54.955Z,1248
2016-06-20T12:53:55.005Z,1284
2016-06-20T12:54:54.430Z,1304
2016-06-20T12:55:54.465Z,1316
2016-06-20T12:56:54.500Z,1316
2016-06-20T12:57:54.550Z,1320
2016-06-20T12:58:53.975Z,1336
2016-06-20T12:59:54.667Z,1360
2016-06-20T13:00:54.670Z,1404
2016-06-20T13:01:54.096Z,1452
2016-06-20T13:02:55.364Z,1484
2016-06-20T13:03:55.680Z,1508
2016-06-20T13:04:54.824Z,1452
2016-06-20T13:05:54.891Z,1476
2016-06-20T13:06:54.910Z,1584
2016-06-20T13:07:53.741Z,1468
2016-06-20T13:08:54.995Z,1472
2016-06-20T13:09:55.639Z,1476
2016-06-20T13:10:55.705Z,1416
2016-06-20T13:11:55.723Z,1392
2016-06-20T13:12:55.773Z,1428
2016-06-20T13:13:53.997Z,1432
2016-06-20T13:14:54.641Z,1412
2016-06-20T13:15:55.300Z,1396
2016-06-20T13:16:54.131Z,1412
2016-06-20T13:17:55.385Z,1484
2016-06-20T13:18:54.202Z,1592
2016-06-20T13:20:28.020Z,1612
2016-06-20T13:20:55.504Z,1592
2016-06-20T13:21:55.540Z,1548
2016-06-20T13:22:56.247Z,1516
2016-06-20T13:23:55.704Z,1424
2016-06-20T13:24:55.066Z,1380
2016-06-20T13:25:55.147Z,1308
2016-06-20T13:26:55.761Z,1248
2016-06-20T13:27:56.436Z,1172
2016-06-20T13:28:55.236Z,1112
2016-06-20T13:29:56.505Z,1068
2016-06-20T13:30:55.337Z,1036
2016-06-20T13:31:55.372Z,1016
2016-06-20T13:32:56.640Z,1008
2016-06-20T13:33:56.050Z,996
2016-06-20T13:34:55.492Z,984
2016-06-20T13:35:56.151Z,980
2016-06-20T13:36:56.795Z,968
2016-06-20T13:37:56.236Z,936
2016-06-20T13:38:56.302Z,920
2016-06-20T13:39:55.103Z,888
2016-06-20T13:40:56.356Z,832
2016-06-20T13:41:56.390Z,792
2016-06-20T13:42:55.878Z,776
2016-06-20T13:43:57.085Z,748
2016-06-20T13:44:56.026Z,756
2016-06-20T13:45:55.982Z,784
2016-06-20T13:46:57.236Z,776
2016-06-20T13:47:56.661Z,768
2016-06-20T13:48:56.695Z,740
2016-06-20T13:49:56.746Z,692
2016-06-20T13:50:57.391Z,660
2016-06-20T13:51:56.206Z,648
2016-06-20T13:52:56.257Z,632
2016-06-20T13:53:56.901Z,652
2016-06-20T13:54:56.357Z,684
2016-06-20T13:55:57.595Z,692
2016-06-20T13:56:56.442Z,680
2016-06-20T13:57:57.087Z,656
2016-06-20T13:58:57.122Z,636